CA-0074 weather

CLOSED Campbellford Airport
Campbellford, Ontario, Canada

Public forecast

Using degrees Celsius for public forecast. Weather courtesy of forecast.io.

Closest aviation weather report (METAR) to Campbellford Airport

Closest report is CFB Trenton, 19.8 nm (36.6 km) SSE. Retrieved 2020/07/12 03:00 UTC (7 minutes ago):

CYTR 120300Z AUTO 30010KT 9SM -RA FEW022 FEW064 SCT086 23/21 A2957 RMK SLP014

Closest aviation forecast (TAF) to Campbellford Airport

Closest forecast is CFB Trenton, 19.8 nm (36.6 km) SSE. Retrieved 2020-07-12 00:33 UTC (3 hours ago):

TAF CYTR 112330Z 1200/1224 07005KT P6SM -SHRA FEW012 SCT025 BKN090 TEMPO 1200/1203 3SM -SHRA BR BKN012 OVC025 PROB30 1200/1203 2SM TSRA BR OVC012CB FM120300 28008KT P6SM SCT010 BKN025 TEMPO 1203/1209 4SM -SHRA BR SCT010 BKN020 BECMG 1204/1206 31010KT FM120900 28008KT P6SM BKN025 TEMPO 1209/1214 SCT025 FM121400 28008KT P6SM SCT050 BECMG 1215/1217 22012KT FM121700 24010KT P6SM BKN040 PROB30 1217/1224 VRB15G25KT 2SM -TSRA BR BKN015 OVC030CB RMK FCST BASED ON AUTO OBS 120200-121000Z NXT FCST BY 120600Z